createdAt,value
2016-08-23T00:00:16.204Z,0
2016-08-23T00:01:15.492Z,0
2016-08-23T00:02:15.479Z,0
2016-08-23T00:03:15.448Z,0
2016-08-23T00:04:15.433Z,0
2016-08-23T00:05:15.411Z,0
2016-08-23T00:06:15.392Z,0
2016-08-23T00:07:15.379Z,0
2016-08-23T00:08:15.351Z,0
2016-08-23T00:09:15.321Z,0
2016-08-23T00:10:15.306Z,0
2016-08-23T00:11:15.280Z,0
2016-08-23T00:12:15.266Z,0
2016-08-23T00:13:15.248Z,0
2016-08-23T00:14:15.219Z,0
2016-08-23T00:15:15.194Z,0
2016-08-23T00:16:15.179Z,0
2016-08-23T00:17:15.158Z,0
2016-08-23T00:18:15.144Z,0
2016-08-23T00:19:15.118Z,0
2016-08-23T00:20:15.099Z,0
2016-08-23T00:21:15.083Z,0
2016-08-23T00:22:15.059Z,0
2016-08-23T00:23:15.045Z,0
2016-08-23T00:24:15.028Z,0
2016-08-23T00:25:14.996Z,0
2016-08-23T00:26:14.970Z,0
2016-08-23T00:27:14.955Z,0
2016-08-23T00:28:14.932Z,0
2016-08-23T00:29:14.916Z,0
2016-08-23T00:30:14.896Z,0
2016-08-23T00:31:14.871Z,0
2016-08-23T00:32:14.852Z,0
2016-08-23T00:33:14.830Z,0
2016-08-23T00:34:14.807Z,0
2016-08-23T00:35:14.782Z,0
2016-08-23T00:36:14.774Z,0
2016-08-23T00:37:14.751Z,0
2016-08-23T00:38:14.727Z,0
2016-08-23T00:39:14.707Z,0
2016-08-23T00:40:14.684Z,0
2016-08-23T00:41:14.664Z,0
2016-08-23T00:42:14.644Z,0
2016-08-23T00:43:14.618Z,0
2016-08-23T00:44:14.600Z,0
2016-08-23T00:45:14.583Z,0
2016-08-23T00:46:14.559Z,0
2016-08-23T00:47:14.539Z,0
2016-08-23T00:48:14.526Z,0
2016-08-23T00:49:14.490Z,0
2016-08-23T00:50:14.482Z,0
2016-08-23T00:51:14.451Z,0
2016-08-23T00:52:14.431Z,0
2016-08-23T00:53:14.415Z,0
2016-08-23T00:54:14.391Z,0
2016-08-23T00:55:14.368Z,0
2016-08-23T00:56:14.351Z,0
2016-08-23T00:57:14.330Z,0
2016-08-23T00:58:14.309Z,0
2016-08-23T00:59:14.285Z,0
2016-08-23T01:00:14.261Z,0
2016-08-23T01:01:14.251Z,0
2016-08-23T01:02:14.223Z,0
2016-08-23T01:03:14.196Z,0
2016-08-23T01:04:14.182Z,0
2016-08-23T01:05:14.161Z,0
2016-08-23T01:06:14.133Z,0
2016-08-23T01:07:14.117Z,0
2016-08-23T01:08:14.107Z,0
2016-08-23T01:09:14.070Z,0
2016-08-23T01:10:14.056Z,0
2016-08-23T01:11:14.036Z,0
2016-08-23T01:12:14.024Z,0
2016-08-23T01:13:13.991Z,0
2016-08-23T01:14:13.972Z,0
2016-08-23T01:15:13.949Z,0
2016-08-23T01:16:13.930Z,0
2016-08-23T01:17:14.598Z,0
2016-08-23T01:18:13.880Z,0
2016-08-23T01:19:13.868Z,0
2016-08-23T01:20:13.844Z,0
2016-08-23T01:21:13.824Z,0
2016-08-23T01:22:13.806Z,0
2016-08-23T01:23:13.777Z,0
2016-08-23T01:24:13.763Z,0
2016-08-23T01:25:13.740Z,0
2016-08-23T01:26:13.715Z,0
2016-08-23T01:27:13.710Z,0
2016-08-23T01:28:13.678Z,0
2016-08-23T01:29:13.651Z,0
2016-08-23T01:30:13.635Z,0
2016-08-23T01:31:13.612Z,0
2016-08-23T01:32:13.588Z,0
2016-08-23T01:33:13.582Z,0
2016-08-23T01:34:13.549Z,0
2016-08-23T01:35:13.525Z,0
2016-08-23T01:36:13.511Z,0
2016-08-23T01:37:13.494Z,0
2016-08-23T01:38:13.461Z,0
2016-08-23T01:39:13.458Z,0
2016-08-23T01:40:13.428Z,0
2016-08-23T01:41:13.410Z,0
2016-08-23T01:42:13.394Z,0
2016-08-23T01:43:13.361Z,0
2016-08-23T01:44:13.346Z,0
2016-08-23T01:45:13.318Z,0
2016-08-23T01:46:13.289Z,0
2016-08-23T01:47:13.277Z,0
2016-08-23T01:48:13.255Z,0
2016-08-23T01:49:13.227Z,0
2016-08-23T01:50:13.211Z,0
2016-08-23T01:51:13.187Z,0
2016-08-23T01:52:13.169Z,0
2016-08-23T01:53:13.148Z,0
2016-08-23T01:54:13.129Z,0
2016-08-23T01:55:13.101Z,0
2016-08-23T01:56:13.085Z,0
2016-08-23T01:57:13.075Z,0
2016-08-23T01:58:13.038Z,0
2016-08-23T01:59:13.024Z,0
2016-08-23T02:00:13.976Z,0
2016-08-23T02:01:12.984Z,0
2016-08-23T02:02:12.954Z,0
2016-08-23T02:03:12.946Z,0
2016-08-23T02:04:12.923Z,0
2016-08-23T02:05:12.892Z,0
2016-08-23T02:06:12.867Z,0
2016-08-23T02:07:12.847Z,0
2016-08-23T02:08:12.824Z,0
2016-08-23T02:09:12.811Z,0
2016-08-23T02:10:12.807Z,0
2016-08-23T02:11:12.774Z,0
2016-08-23T02:12:12.736Z,0
2016-08-23T02:13:12.726Z,0
2016-08-23T02:14:12.702Z,0
2016-08-23T02:15:12.674Z,0
2016-08-23T02:16:12.671Z,0
2016-08-23T02:17:12.637Z,0
2016-08-23T02:18:12.612Z,0
2016-08-23T02:19:13.289Z,0
2016-08-23T02:20:12.577Z,0
2016-08-23T02:21:12.560Z,0
2016-08-23T02:22:12.532Z,0
2016-08-23T02:23:12.509Z,0
2016-08-23T02:24:12.490Z,0
2016-08-23T02:25:12.477Z,0
2016-08-23T02:26:12.442Z,0
2016-08-23T02:27:12.426Z,0
2016-08-23T02:28:12.403Z,0
2016-08-23T02:29:12.383Z,0
2016-08-23T02:30:12.363Z,0
2016-08-23T02:31:12.338Z,0
2016-08-23T02:32:12.322Z,0
2016-08-23T02:33:12.297Z,0
2016-08-23T02:34:12.274Z,0
2016-08-23T02:35:12.250Z,0
2016-08-23T02:36:12.232Z,0
2016-08-23T02:37:12.211Z,0
2016-08-23T02:38:12.183Z,0
2016-08-23T02:39:12.169Z,0
2016-08-23T02:40:12.146Z,0
2016-08-23T02:41:12.129Z,0
2016-08-23T02:42:12.103Z,0
2016-08-23T02:43:12.083Z,0
2016-08-23T02:44:12.061Z,0
2016-08-23T02:45:12.040Z,0
2016-08-23T02:46:12.018Z,0
2016-08-23T02:47:11.995Z,0
2016-08-23T02:48:11.975Z,0
2016-08-23T02:49:11.957Z,0
2016-08-23T02:50:11.939Z,0
2016-08-23T02:51:11.911Z,0
2016-08-23T02:52:11.886Z,0
2016-08-23T02:53:11.873Z,0
2016-08-23T02:54:11.847Z,0
2016-08-23T02:55:11.822Z,0
2016-08-23T02:56:11.825Z,0
2016-08-23T02:57:11.784Z,0
2016-08-23T02:58:11.759Z,0
2016-08-23T02:59:11.743Z,0
2016-08-23T03:00:11.723Z,0
2016-08-23T03:01:11.697Z,0
2016-08-23T03:02:11.677Z,0
2016-08-23T03:03:11.665Z,0
2016-08-23T03:04:11.639Z,0
2016-08-23T03:05:11.613Z,0
2016-08-23T03:06:11.589Z,0
2016-08-23T03:07:11.568Z,0
2016-08-23T03:08:11.551Z,0
2016-08-23T03:09:11.538Z,0
2016-08-23T03:10:11.504Z,0
2016-08-23T03:11:11.485Z,0
2016-08-23T03:12:11.471Z,0
2016-08-23T03:13:11.439Z,0
2016-08-23T03:14:11.427Z,0
2016-08-23T03:15:11.404Z,0
2016-08-23T03:16:11.378Z,0
2016-08-23T03:17:11.368Z,0
2016-08-23T03:18:11.336Z,0
2016-08-23T03:19:11.312Z,0
2016-08-23T03:20:11.291Z,0
2016-08-23T03:21:11.274Z,0
2016-08-23T03:22:11.249Z,0
2016-08-23T03:23:11.226Z,0
2016-08-23T03:24:11.209Z,0
2016-08-23T03:25:11.185Z,0
2016-08-23T03:26:11.160Z,0
2016-08-23T03:27:11.141Z,0
2016-08-23T03:28:11.121Z,0
2016-08-23T03:29:11.095Z,0
2016-08-23T03:30:11.084Z,0
2016-08-23T03:31:11.055Z,0
2016-08-23T03:32:11.029Z,0
2016-08-23T03:33:11.016Z,0
2016-08-23T03:34:10.996Z,0
2016-08-23T03:35:10.968Z,0
2016-08-23T03:36:10.951Z,0
2016-08-23T03:37:10.935Z,0
2016-08-23T03:38:10.909Z,0
2016-08-23T03:39:10.887Z,0
2016-08-23T03:40:10.865Z,0
2016-08-23T03:41:10.845Z,0
2016-08-23T03:42:10.818Z,0
2016-08-23T03:43:10.799Z,0
2016-08-23T03:44:10.781Z,0
2016-08-23T03:45:10.757Z,0
2016-08-23T03:46:10.759Z,0
2016-08-23T03:47:10.718Z,0
2016-08-23T03:48:10.693Z,0
2016-08-23T03:49:10.675Z,0
2016-08-23T03:50:10.648Z,0
2016-08-23T03:51:11.318Z,0
2016-08-23T03:52:10.607Z,0
2016-08-23T03:53:10.582Z,0
2016-08-23T03:54:10.559Z,0
2016-08-23T03:55:10.545Z,0
2016-08-23T03:56:10.522Z,0
2016-08-23T03:57:10.495Z,0
2016-08-23T03:58:10.476Z,0
2016-08-23T03:59:10.452Z,0
2016-08-23T04:00:10.427Z,0
2016-08-23T04:01:10.413Z,0
2016-08-23T04:02:10.390Z,0
2016-08-23T04:03:10.366Z,0
2016-08-23T04:04:10.356Z,0
2016-08-23T04:05:10.321Z,0
2016-08-23T04:06:10.295Z,0
2016-08-23T04:07:10.280Z,0
2016-08-23T04:08:10.259Z,0
2016-08-23T04:09:10.232Z,0
2016-08-23T04:10:10.220Z,0
2016-08-23T04:11:10.201Z,0
2016-08-23T04:12:10.176Z,0
2016-08-23T04:13:10.148Z,0
2016-08-23T04:14:10.142Z,5
2016-08-23T04:15:10.109Z,5
2016-08-23T04:16:10.084Z,5
2016-08-23T04:17:10.062Z,5
2016-08-23T04:18:10.737Z,5
2016-08-23T04:19:10.035Z,5
2016-08-23T04:20:10.013Z,10
2016-08-23T04:21:09.977Z,10
2016-08-23T04:22:09.965Z,10
2016-08-23T04:23:09.933Z,10
2016-08-23T04:24:09.914Z,15
2016-08-23T04:25:09.885Z,15
2016-08-23T04:26:09.874Z,15
2016-08-23T04:27:09.846Z,20
2016-08-23T04:28:09.823Z,20
2016-08-23T04:29:09.810Z,20
2016-08-23T04:30:09.778Z,25
2016-08-23T04:31:09.761Z,25
2016-08-23T04:32:09.743Z,30
2016-08-23T04:33:09.720Z,30
2016-08-23T04:34:09.699Z,30
2016-08-23T04:35:09.674Z,35
2016-08-23T04:36:10.353Z,35
2016-08-23T04:37:09.629Z,40
2016-08-23T04:38:09.613Z,40
2016-08-23T04:39:09.588Z,45
2016-08-23T04:40:09.563Z,50
2016-08-23T04:41:09.545Z,50
2016-08-23T04:42:09.521Z,55
2016-08-23T04:43:09.501Z,55
2016-08-23T04:44:09.486Z,60
2016-08-23T04:45:09.458Z,65
2016-08-23T04:46:09.435Z,65
2016-08-23T04:47:09.424Z,70
2016-08-23T04:48:09.397Z,75
2016-08-23T04:49:09.370Z,75
2016-08-23T04:50:09.354Z,80
2016-08-23T04:51:09.341Z,80
2016-08-23T04:52:09.307Z,85
2016-08-23T04:53:09.298Z,85
2016-08-23T04:54:09.274Z,90
2016-08-23T04:55:09.243Z,90
2016-08-23T04:56:09.223Z,95
2016-08-23T04:57:09.201Z,100
2016-08-23T04:58:09.193Z,105
2016-08-23T04:59:09.151Z,105
2016-08-23T05:00:09.136Z,105
2016-08-23T05:01:09.112Z,110
2016-08-23T05:02:09.090Z,115
2016-08-23T05:03:09.093Z,115
2016-08-23T05:04:09.048Z,120
2016-08-23T05:05:09.029Z,120
2016-08-23T05:06:09.007Z,125
2016-08-23T05:07:08.995Z,125
2016-08-23T05:08:08.965Z,130
2016-08-23T05:09:08.944Z,135
2016-08-23T05:10:08.925Z,135
2016-08-23T05:11:08.902Z,140
2016-08-23T05:12:08.882Z,140
2016-08-23T05:13:08.862Z,145
2016-08-23T05:14:08.879Z,145
2016-08-23T05:15:08.836Z,150
2016-08-23T05:16:08.888Z,150
2016-08-23T05:17:09.215Z,155
2016-08-23T05:18:08.754Z,155
2016-08-23T05:19:08.733Z,160
2016-08-23T05:20:08.713Z,160
2016-08-23T05:21:08.685Z,160
2016-08-23T05:22:08.754Z,165
2016-08-23T05:23:08.650Z,165
2016-08-23T05:24:08.621Z,170
2016-08-23T05:25:08.611Z,170
2016-08-23T05:26:08.608Z,175
2016-08-23T05:27:08.596Z,175
2016-08-23T05:28:08.570Z,180
2016-08-23T05:29:08.526Z,180
2016-08-23T05:30:08.498Z,180
2016-08-23T05:31:08.479Z,185
2016-08-23T05:32:08.460Z,185
2016-08-23T05:33:08.437Z,190
2016-08-23T05:34:09.171Z,190
2016-08-23T05:35:08.395Z,190
2016-08-23T05:36:08.430Z,195
2016-08-23T05:37:08.374Z,195
2016-08-23T05:38:09.023Z,200
2016-08-23T05:39:08.768Z,200
2016-08-23T05:40:08.775Z,205
2016-08-23T05:41:08.271Z,205
2016-08-23T05:42:08.247Z,205
2016-08-23T05:43:08.229Z,210
2016-08-23T05:44:08.238Z,210
2016-08-23T05:45:08.189Z,215
2016-08-23T05:46:08.171Z,215
2016-08-23T05:47:08.145Z,220
2016-08-23T05:48:08.138Z,220
2016-08-23T05:49:08.103Z,225
2016-08-23T05:50:08.790Z,225
2016-08-23T05:51:08.073Z,230
2016-08-23T05:52:08.037Z,230
2016-08-23T05:53:08.029Z,235
2016-08-23T05:54:08.001Z,235
2016-08-23T05:55:07.979Z,235
2016-08-23T05:56:07.962Z,235
2016-08-23T05:57:07.944Z,240
2016-08-23T05:58:08.133Z,240
2016-08-23T05:59:07.900Z,240
2016-08-23T06:00:07.881Z,245
2016-08-23T06:01:07.858Z,245
2016-08-23T06:02:07.843Z,250
2016-08-23T06:03:07.818Z,250
2016-08-23T06:04:07.803Z,250
2016-08-23T06:05:08.469Z,255
2016-08-23T06:06:07.757Z,255
2016-08-23T06:07:07.738Z,250
2016-08-23T06:08:07.739Z,255
2016-08-23T06:09:07.698Z,260
2016-08-23T06:10:07.676Z,260
2016-08-23T06:11:07.658Z,260
2016-08-23T06:12:07.753Z,260
2016-08-23T06:13:07.864Z,260
2016-08-23T06:14:07.601Z,265
2016-08-23T06:15:07.570Z,265
2016-08-23T06:16:07.557Z,265
2016-08-23T06:17:07.557Z,275
2016-08-23T06:18:08.217Z,290
2016-08-23T06:19:07.527Z,420
2016-08-23T06:20:07.487Z,670
2016-08-23T06:21:07.466Z,840
2016-08-23T06:22:07.444Z,850
2016-08-23T06:23:07.828Z,875
2016-08-23T06:24:07.447Z,900
2016-08-23T06:25:07.389Z,895
2016-08-23T06:26:07.505Z,905
2016-08-23T06:27:07.472Z,920
2016-08-23T06:28:07.782Z,935
2016-08-23T06:29:08.182Z,935
2016-08-23T06:30:07.470Z,945
2016-08-23T06:31:08.253Z,975
2016-08-23T06:32:07.700Z,995
2016-08-23T06:33:07.233Z,995
2016-08-23T06:34:07.761Z,1020
2016-08-23T06:35:07.197Z,1020
2016-08-23T06:36:07.246Z,1025
2016-08-23T06:37:07.855Z,1035
2016-08-23T06:38:07.221Z,1045
2016-08-23T06:39:08.071Z,1055
2016-08-23T06:40:07.867Z,1065
2016-08-23T06:41:07.155Z,1080
2016-08-23T06:42:07.776Z,1080
2016-08-23T06:43:07.069Z,1105
2016-08-23T06:44:07.146Z,1110
2016-08-23T06:45:07.232Z,1100
2016-08-23T06:46:08.984Z,1115
2016-08-23T06:47:07.056Z,1140
2016-08-23T06:48:06.989Z,850
2016-08-23T06:49:06.977Z,460
2016-08-23T06:50:06.966Z,355
2016-08-23T06:51:07.011Z,355
2016-08-23T06:52:07.046Z,360
2016-08-23T06:53:07.024Z,360
2016-08-23T06:54:07.092Z,360
2016-08-23T06:55:06.900Z,360
2016-08-23T06:56:07.037Z,430
2016-08-23T06:57:08.347Z,695
2016-08-23T06:58:06.838Z,955
2016-08-23T06:59:06.832Z,1205
2016-08-23T07:00:06.955Z,1235
2016-08-23T07:01:06.857Z,1250
2016-08-23T07:02:08.062Z,1220
2016-08-23T07:03:06.766Z,1035
2016-08-23T07:04:06.989Z,1050
2016-08-23T07:05:08.419Z,1120
2016-08-23T07:06:07.882Z,980
2016-08-23T07:07:08.665Z,1100
2016-08-23T07:08:07.707Z,1220
2016-08-23T07:09:09.407Z,1220
2016-08-23T07:10:07.339Z,1305
2016-08-23T07:11:07.619Z,1340
2016-08-23T07:12:07.399Z,1365
2016-08-23T07:13:08.407Z,1315
2016-08-23T07:14:09.567Z,990
2016-08-23T07:15:09.179Z,660
2016-08-23T07:16:08.456Z,420
2016-08-23T07:17:09.248Z,385
2016-08-23T07:18:08.395Z,400
2016-08-23T07:19:08.391Z,420
2016-08-23T07:20:08.481Z,660
2016-08-23T07:21:10.271Z,1055
2016-08-23T07:22:08.520Z,1420
2016-08-23T07:23:08.342Z,1455
2016-08-23T07:24:08.910Z,1465
2016-08-23T07:25:11.093Z,1455
2016-08-23T07:26:08.116Z,1475
2016-08-23T07:27:07.002Z,1175
2016-08-23T07:28:07.642Z,835
2016-08-23T07:29:07.687Z,980
2016-08-23T07:30:08.596Z,1370
2016-08-23T07:31:09.156Z,1400
2016-08-23T07:32:08.430Z,1345
2016-08-23T07:33:08.953Z,1200
2016-08-23T07:34:09.010Z,1170
2016-08-23T07:35:10.049Z,1070
2016-08-23T07:36:09.685Z,840
2016-08-23T07:37:08.369Z,755
2016-08-23T07:38:08.615Z,1040
2016-08-23T07:39:08.571Z,1200
2016-08-23T07:40:09.285Z,1120
2016-08-23T07:41:08.867Z,1070
2016-08-23T07:42:08.644Z,1150
2016-08-23T07:43:08.367Z,1070
2016-08-23T07:44:08.527Z,790
2016-08-23T07:45:06.570Z,760
2016-08-23T07:46:06.346Z,885
2016-08-23T07:47:06.483Z,805
2016-08-23T07:48:07.727Z,740
2016-08-23T07:49:07.948Z,690
2016-08-23T07:50:08.760Z,705
2016-08-23T07:51:07.999Z,745
2016-08-23T07:52:06.307Z,810
2016-08-23T07:53:07.649Z,1180
2016-08-23T07:54:06.295Z,1345
2016-08-23T07:55:07.174Z,1445
2016-08-23T07:56:06.362Z,1485
2016-08-23T07:57:06.797Z,1520
2016-08-23T07:58:06.120Z,1570
2016-08-23T07:59:08.506Z,1290
2016-08-23T08:00:08.245Z,1145
2016-08-23T08:01:09.661Z,860
2016-08-23T08:02:07.373Z,845
2016-08-23T08:03:07.110Z,1480
2016-08-23T08:04:07.818Z,1840
2016-08-23T08:05:07.479Z,1785
2016-08-23T08:06:09.270Z,1740
2016-08-23T08:07:07.789Z,1695
2016-08-23T08:08:08.743Z,1760
2016-08-23T08:09:08.170Z,1805
2016-08-23T08:10:06.476Z,1665
2016-08-23T08:11:07.193Z,1530
2016-08-23T08:12:07.305Z,1400
2016-08-23T08:13:06.393Z,1215
2016-08-23T08:14:06.662Z,1000
2016-08-23T08:15:06.393Z,785
2016-08-23T08:16:06.598Z,595
2016-08-23T08:17:05.868Z,485
2016-08-23T08:18:05.957Z,460
2016-08-23T08:19:05.902Z,455
2016-08-23T08:20:05.849Z,455
2016-08-23T08:21:06.269Z,455
2016-08-23T08:22:07.315Z,455
2016-08-23T08:23:05.833Z,460
2016-08-23T08:24:06.433Z,455
2016-08-23T08:25:06.479Z,455
2016-08-23T08:26:09.353Z,455
2016-08-23T08:27:05.986Z,455
2016-08-23T08:28:05.904Z,455
2016-08-23T08:29:06.445Z,465
2016-08-23T08:30:06.006Z,460
2016-08-23T08:31:07.152Z,470
2016-08-23T08:32:05.720Z,545
2016-08-23T08:33:06.352Z,835
2016-08-23T08:34:05.932Z,865
2016-08-23T08:35:08.093Z,745
2016-08-23T08:36:07.444Z,1055
2016-08-23T08:37:06.932Z,1505
2016-08-23T08:38:06.069Z,1715
2016-08-23T08:39:06.330Z,1665
2016-08-23T08:40:06.003Z,1775
2016-08-23T08:41:05.718Z,1870
2016-08-23T08:42:05.700Z,1855
2016-08-23T08:43:05.979Z,1750
2016-08-23T08:44:05.761Z,1890
2016-08-23T08:45:05.931Z,1940
2016-08-23T08:46:07.113Z,1970
2016-08-23T08:47:06.802Z,1940
2016-08-23T08:48:06.030Z,2035
2016-08-23T08:49:06.267Z,2075
2016-08-23T08:50:08.041Z,2060
2016-08-23T08:51:05.653Z,2075
2016-08-23T08:52:05.614Z,2080
2016-08-23T08:53:07.289Z,1965
2016-08-23T08:54:07.984Z,1760
2016-08-23T08:55:06.960Z,1535
2016-08-23T08:56:06.468Z,1305
2016-08-23T08:57:06.871Z,1070
2016-08-23T08:58:05.455Z,855
2016-08-23T08:59:07.395Z,690
2016-08-23T09:00:07.573Z,555
2016-08-23T09:01:07.214Z,495
2016-08-23T09:02:06.980Z,485
2016-08-23T09:03:05.429Z,485
2016-08-23T09:04:05.658Z,485
2016-08-23T09:05:06.042Z,485
2016-08-23T09:06:05.381Z,475
2016-08-23T09:07:06.259Z,475
2016-08-23T09:08:05.375Z,470
2016-08-23T09:09:08.568Z,460
2016-08-23T09:10:05.662Z,455
2016-08-23T09:11:06.646Z,460
2016-08-23T09:12:05.391Z,460
2016-08-23T09:13:06.518Z,460
2016-08-23T09:14:05.590Z,465
2016-08-23T09:15:05.199Z,465
2016-08-23T09:16:05.510Z,470
2016-08-23T09:17:05.166Z,470
2016-08-23T09:18:05.515Z,470
2016-08-23T09:19:05.575Z,475
2016-08-23T09:20:05.115Z,470
2016-08-23T09:21:05.310Z,470
2016-08-23T09:22:05.830Z,470
2016-08-23T09:23:05.776Z,480
2016-08-23T09:24:05.144Z,475
2016-08-23T09:25:05.298Z,470
2016-08-23T09:26:05.312Z,470
2016-08-23T09:27:05.183Z,470
2016-08-23T09:28:06.702Z,475
2016-08-23T09:29:08.385Z,470
2016-08-23T09:30:05.766Z,475
2016-08-23T09:31:04.960Z,470
2016-08-23T09:32:04.951Z,465
2016-08-23T09:33:06.865Z,465
2016-08-23T09:34:07.058Z,455
2016-08-23T09:35:07.227Z,450
2016-08-23T09:36:08.264Z,445
2016-08-23T09:37:06.810Z,440
2016-08-23T09:38:06.692Z,435
2016-08-23T09:39:05.789Z,435
2016-08-23T09:40:05.306Z,435
2016-08-23T09:41:04.982Z,430
2016-08-23T09:42:05.588Z,415
2016-08-23T09:43:06.125Z,415
2016-08-23T09:44:04.787Z,415
2016-08-23T09:45:05.314Z,415
2016-08-23T09:46:06.303Z,420
2016-08-23T09:47:05.880Z,420
2016-08-23T09:48:06.422Z,415
2016-08-23T09:49:04.907Z,415
2016-08-23T09:50:05.051Z,415
2016-08-23T09:51:05.780Z,415
2016-08-23T09:52:06.364Z,410
2016-08-23T09:53:05.803Z,410
2016-08-23T09:54:04.853Z,405
2016-08-23T09:55:04.879Z,400
2016-08-23T09:56:04.837Z,400
2016-08-23T09:57:05.438Z,400
2016-08-23T09:58:04.586Z,395
2016-08-23T09:59:06.137Z,395
2016-08-23T10:00:05.424Z,395
2016-08-23T10:01:04.547Z,400
2016-08-23T10:02:05.286Z,400
2016-08-23T10:03:05.300Z,400
2016-08-23T10:04:06.180Z,405
2016-08-23T10:05:07.058Z,405
2016-08-23T10:06:04.515Z,405
2016-08-23T10:07:04.452Z,405
2016-08-23T10:08:04.662Z,410
2016-08-23T10:09:06.308Z,405
2016-08-23T10:10:06.713Z,405
2016-08-23T10:11:06.347Z,405
2016-08-23T10:12:05.883Z,405
2016-08-23T10:13:04.396Z,405
2016-08-23T10:14:05.342Z,405
2016-08-23T10:15:04.404Z,405
2016-08-23T10:16:05.772Z,405
2016-08-23T10:17:07.738Z,400
2016-08-23T10:18:04.460Z,405
2016-08-23T10:19:05.665Z,405
2016-08-23T10:20:04.277Z,405
2016-08-23T10:21:04.266Z,410
2016-08-23T10:22:04.470Z,410
2016-08-23T10:23:04.238Z,410
2016-08-23T10:24:04.553Z,410
2016-08-23T10:25:04.209Z,410
2016-08-23T10:26:06.403Z,410
2016-08-23T10:27:06.160Z,415
2016-08-23T10:28:05.066Z,410
2016-08-23T10:29:06.472Z,410
2016-08-23T10:30:05.104Z,405
2016-08-23T10:31:05.661Z,405
2016-08-23T10:32:04.235Z,410
2016-08-23T10:33:04.085Z,410
2016-08-23T10:34:04.478Z,415
2016-08-23T10:35:05.766Z,420
2016-08-23T10:36:06.373Z,420
2016-08-23T10:37:05.960Z,420
2016-08-23T10:38:04.617Z,425
2016-08-23T10:39:05.588Z,420
2016-08-23T10:40:05.071Z,420
2016-08-23T10:41:04.170Z,420
2016-08-23T10:42:04.437Z,420
2016-08-23T10:43:04.408Z,425
2016-08-23T10:44:04.020Z,425
2016-08-23T10:45:03.934Z,425
2016-08-23T10:46:04.252Z,425
2016-08-23T10:47:03.935Z,425
2016-08-23T10:48:04.274Z,425
2016-08-23T10:49:04.371Z,420
2016-08-23T10:50:04.562Z,420
2016-08-23T10:51:05.316Z,420
2016-08-23T10:52:03.890Z,420
2016-08-23T10:53:03.808Z,420
2016-08-23T10:54:03.819Z,420
2016-08-23T10:55:05.208Z,420
2016-08-23T10:56:05.468Z,420
2016-08-23T10:57:03.831Z,420
2016-08-23T10:58:03.927Z,420
2016-08-23T10:59:05.014Z,420
2016-08-23T11:00:03.774Z,420
2016-08-23T11:01:03.770Z,420
2016-08-23T11:02:04.646Z,420
2016-08-23T11:03:04.761Z,415
2016-08-23T11:04:03.837Z,415
2016-08-23T11:05:03.644Z,415
2016-08-23T11:06:03.848Z,415
2016-08-23T11:07:04.048Z,415
2016-08-23T11:08:04.317Z,410
2016-08-23T11:09:03.591Z,410
2016-08-23T11:10:03.579Z,410
2016-08-23T11:11:03.929Z,410
2016-08-23T11:12:03.970Z,415
2016-08-23T11:13:04.102Z,420
2016-08-23T11:14:03.951Z,420
2016-08-23T11:15:03.650Z,420
2016-08-23T11:16:03.633Z,425
2016-08-23T11:17:03.491Z,425
2016-08-23T11:18:04.187Z,435
2016-08-23T11:19:03.977Z,435
2016-08-23T11:20:04.459Z,440
2016-08-23T11:21:03.601Z,445
2016-08-23T11:22:03.652Z,445
2016-08-23T11:23:04.312Z,450
2016-08-23T11:24:03.397Z,455
2016-08-23T11:25:03.655Z,460
2016-08-23T11:26:03.755Z,465
2016-08-23T11:27:03.349Z,475
2016-08-23T11:28:03.552Z,470
2016-08-23T11:29:04.382Z,475
2016-08-23T11:30:03.376Z,480
2016-08-23T11:31:03.290Z,480
2016-08-23T11:32:04.415Z,480
2016-08-23T11:33:03.324Z,485
2016-08-23T11:34:03.950Z,480
2016-08-23T11:35:04.435Z,475
2016-08-23T11:36:03.234Z,470
2016-08-23T11:37:03.216Z,480
2016-08-23T11:38:04.390Z,480
2016-08-23T11:39:04.352Z,475
2016-08-23T11:40:03.211Z,475
2016-08-23T11:41:03.554Z,475
2016-08-23T11:42:03.163Z,475
2016-08-23T11:43:03.737Z,470
2016-08-23T11:44:03.576Z,470
2016-08-23T11:45:03.402Z,470
2016-08-23T11:46:03.141Z,465
2016-08-23T11:47:04.048Z,460
2016-08-23T11:48:04.173Z,455
2016-08-23T11:49:03.668Z,455
2016-08-23T11:50:03.457Z,455
2016-08-23T11:51:03.427Z,445
2016-08-23T11:52:03.120Z,445
2016-08-23T11:53:03.120Z,440
2016-08-23T11:54:03.048Z,440
2016-08-23T11:55:04.910Z,435
2016-08-23T11:56:05.521Z,430
2016-08-23T11:57:03.000Z,425
2016-08-23T11:58:03.945Z,425
2016-08-23T11:59:03.314Z,430
2016-08-23T12:00:02.927Z,425
2016-08-23T12:01:02.929Z,425
2016-08-23T12:02:03.345Z,425
2016-08-23T12:03:03.117Z,425
2016-08-23T12:04:04.541Z,430
2016-08-23T12:05:03.111Z,430
2016-08-23T12:06:02.864Z,430
2016-08-23T12:07:02.887Z,430
2016-08-23T12:08:02.977Z,425
2016-08-23T12:09:02.997Z,425
2016-08-23T12:10:03.154Z,425
2016-08-23T12:11:03.455Z,425
2016-08-23T12:12:03.905Z,425
2016-08-23T12:13:03.290Z,425
2016-08-23T12:14:03.265Z,425
2016-08-23T12:15:04.173Z,425
2016-08-23T12:16:03.249Z,425
2016-08-23T12:17:04.976Z,425
2016-08-23T12:18:05.020Z,425
2016-08-23T12:19:02.726Z,425
2016-08-23T12:20:02.673Z,425
2016-08-23T12:21:02.666Z,425
2016-08-23T12:22:03.212Z,425
2016-08-23T12:23:02.635Z,425
2016-08-23T12:24:04.131Z,425
2016-08-23T12:25:03.124Z,425
2016-08-23T12:26:03.956Z,425
2016-08-23T12:27:03.739Z,425
2016-08-23T12:28:02.992Z,425
2016-08-23T12:29:02.714Z,430
2016-08-23T12:30:03.019Z,425
2016-08-23T12:31:03.018Z,425
2016-08-23T12:32:04.236Z,425
2016-08-23T12:33:03.115Z,425
2016-08-23T12:34:03.799Z,430
2016-08-23T12:35:02.720Z,430
2016-08-23T12:36:04.503Z,430
2016-08-23T12:37:03.463Z,430
2016-08-23T12:38:03.018Z,430
2016-08-23T12:39:04.629Z,440
2016-08-23T12:40:03.894Z,435
2016-08-23T12:41:03.957Z,435
2016-08-23T12:42:02.860Z,435
2016-08-23T12:43:03.095Z,435
2016-08-23T12:44:03.625Z,435
2016-08-23T12:45:04.711Z,435
2016-08-23T12:46:03.817Z,435
2016-08-23T12:47:03.635Z,435
2016-08-23T12:48:03.782Z,435
2016-08-23T12:49:04.052Z,430
2016-08-23T12:50:02.482Z,430
2016-08-23T12:51:02.548Z,430
2016-08-23T12:52:03.841Z,430
2016-08-23T12:53:03.519Z,430
2016-08-23T12:54:04.144Z,435
2016-08-23T12:55:02.268Z,435
2016-08-23T12:56:03.104Z,435
2016-08-23T12:57:04.572Z,440
2016-08-23T12:58:02.413Z,435
2016-08-23T12:59:03.159Z,440
2016-08-23T13:00:04.399Z,440
2016-08-23T13:01:04.187Z,440
2016-08-23T13:02:03.906Z,445
2016-08-23T13:03:04.685Z,440
2016-08-23T13:04:02.629Z,440
2016-08-23T13:05:02.988Z,440
2016-08-23T13:06:02.120Z,440
2016-08-23T13:07:03.654Z,445
2016-08-23T13:08:02.109Z,445
2016-08-23T13:09:02.085Z,445
2016-08-23T13:10:02.318Z,440
2016-08-23T13:11:02.784Z,445
2016-08-23T13:12:02.035Z,440
2016-08-23T13:13:02.038Z,445
2016-08-23T13:14:02.025Z,445
2016-08-23T13:15:02.055Z,445
2016-08-23T13:16:02.280Z,445
2016-08-23T13:17:02.032Z,445
2016-08-23T13:18:02.853Z,445
2016-08-23T13:19:02.142Z,445
2016-08-23T13:20:02.928Z,445
2016-08-23T13:21:02.038Z,445
2016-08-23T13:22:01.922Z,445
2016-08-23T13:23:01.915Z,445
2016-08-23T13:24:01.901Z,445
2016-08-23T13:25:01.894Z,445
2016-08-23T13:26:02.938Z,445
2016-08-23T13:27:02.062Z,445
2016-08-23T13:28:04.131Z,450
2016-08-23T13:29:03.936Z,450
2016-08-23T13:30:03.083Z,450
2016-08-23T13:31:01.817Z,450
2016-08-23T13:32:02.420Z,450
2016-08-23T13:33:03.760Z,455
2016-08-23T13:34:03.521Z,455
2016-08-23T13:35:02.637Z,455
2016-08-23T13:36:02.579Z,460
2016-08-23T13:37:02.082Z,460
2016-08-23T13:38:02.512Z,460
2016-08-23T13:39:01.730Z,460
2016-08-23T13:40:01.926Z,460
2016-08-23T13:41:01.704Z,460
2016-08-23T13:42:01.695Z,460
2016-08-23T13:43:02.522Z,460
2016-08-23T13:44:02.260Z,460
2016-08-23T13:45:01.812Z,455
2016-08-23T13:46:03.217Z,455
2016-08-23T13:47:01.636Z,455
2016-08-23T13:48:01.626Z,455
2016-08-23T13:49:01.967Z,460
2016-08-23T13:50:03.377Z,460
2016-08-23T13:51:03.442Z,460
2016-08-23T13:52:03.467Z,460
2016-08-23T13:53:03.518Z,460
2016-08-23T13:54:03.803Z,460
2016-08-23T13:55:03.577Z,455
2016-08-23T13:56:03.601Z,455
2016-08-23T13:57:03.385Z,460
2016-08-23T13:58:01.844Z,455
2016-08-23T13:59:02.550Z,455
2016-08-23T14:00:01.491Z,455
2016-08-23T14:01:01.469Z,455
2016-08-23T14:02:02.164Z,455